Аэропорт: Запорожье. Запорожье

ICAO: UKDE

METAR:
2019-09-21 16:00:00
UKDE 211600Z 28004MPS 250V320 CAVOK 11/05 Q1020 R02R/////// NOSIG
METAR:
2019-09-21 14:05:00
TAF UKDE 211405Z 2115/2124 29005MPS 9999 SCT030CB TEMPO 2120/2124 3100 BR BKN010 BKN013CB